createdAt,value
2018-12-30T00:01:16.412Z,95733.00
2018-12-30T00:03:47.696Z,95731.41
2018-12-30T00:06:19.208Z,95738.78
2018-12-30T00:08:50.837Z,95737.98
2018-12-30T00:11:22.128Z,95746.50
2018-12-30T00:13:53.398Z,95738.30
2018-12-30T00:16:24.545Z,95742.00
2018-12-30T00:18:55.755Z,95742.33
2018-12-30T00:21:26.911Z,95740.07
2018-12-30T00:23:58.144Z,95736.53
2018-12-30T00:26:29.217Z,95736.20
2018-12-30T00:29:00.731Z,95746.83
2018-12-30T00:31:31.919Z,95744.55
2018-12-30T00:34:03.257Z,95737.02
2018-12-30T00:36:34.650Z,95738.62
2018-12-30T00:39:07.485Z,95742.64
2018-12-30T00:41:38.640Z,95740.08
2018-12-30T00:44:09.746Z,95741.20
2018-12-30T00:46:41.064Z,95744.26
2018-12-30T00:49:12.331Z,95744.88
2018-12-30T00:51:43.550Z,95744.88
2018-12-30T00:54:14.775Z,95739.13
2018-12-30T00:56:45.920Z,95747.30
2018-12-30T00:59:17.189Z,95737.20
2018-12-30T01:01:48.343Z,95738.31
2018-12-30T01:04:20.054Z,95735.57
2018-12-30T01:06:51.273Z,95739.58
2018-12-30T01:09:22.674Z,95733.66
2018-12-30T01:11:53.853Z,95738.77
2018-12-30T01:14:25.099Z,95735.88
2018-12-30T01:16:56.316Z,95734.95
2018-12-30T01:19:27.694Z,95737.17
2018-12-30T01:21:58.764Z,95725.13
2018-12-30T01:24:30.893Z,95729.33
2018-12-30T01:27:02.296Z,95729.95
2018-12-30T01:29:33.539Z,95725.61
2018-12-30T01:32:04.668Z,95726.25
2018-12-30T01:34:37.573Z,95720.48
2018-12-30T01:37:08.719Z,95719.86
2018-12-30T01:39:39.915Z,95715.99
2018-12-30T01:42:11.172Z,95716.63
2018-12-30T01:44:42.591Z,95713.73
2018-12-30T01:47:13.757Z,95710.86
2018-12-30T01:49:45.113Z,95714.39
2018-12-30T01:52:16.412Z,95709.86
2018-12-30T01:54:47.702Z,95706.02
2018-12-30T01:57:18.945Z,95708.91
2018-12-30T01:59:50.142Z,95710.17
2018-12-30T02:02:21.339Z,95694.44
2018-12-30T02:04:52.797Z,95700.88
2018-12-30T02:07:24.080Z,95698.00
2018-12-30T02:09:55.303Z,95688.84
2018-12-30T02:12:26.702Z,95695.13
2018-12-30T02:14:57.987Z,95689.66
2018-12-30T02:17:29.164Z,95690.60
2018-12-30T02:20:00.357Z,95690.94
2018-12-30T02:22:31.755Z,95676.16
2018-12-30T02:25:02.982Z,95676.16
2018-12-30T02:27:34.123Z,95682.90
2018-12-30T02:30:06.003Z,95670.22
2018-12-30T02:32:37.214Z,95670.22
2018-12-30T02:35:08.547Z,95676.34
2018-12-30T02:37:39.737Z,95665.90
2018-12-30T02:40:10.935Z,95668.77
2018-12-30T02:42:43.057Z,95662.67
2018-12-30T02:45:14.425Z,95660.77
2018-12-30T02:47:45.738Z,95655.30
2018-12-30T02:50:16.848Z,95659.31
2018-12-30T02:52:48.777Z,95647.75
2018-12-30T02:55:20.159Z,95651.13
2018-12-30T02:57:51.410Z,95651.47
2018-12-30T03:00:22.779Z,95648.42
2018-12-30T03:02:53.800Z,95651.30
2018-12-30T03:05:25.487Z,95649.69
2018-12-30T03:07:56.770Z,95651.45
2018-12-30T03:10:27.918Z,95644.08
2018-12-30T03:13:00.810Z,95648.88
2018-12-30T03:15:32.132Z,95642.78
2018-12-30T03:18:03.331Z,95638.30
2018-12-30T03:20:34.577Z,95640.38
2018-12-30T03:23:06.033Z,95639.91
2018-12-30T03:25:37.623Z,95637.00
2018-12-30T03:28:08.668Z,95635.39
2018-12-30T03:30:40.183Z,95634.42
2018-12-30T03:33:11.523Z,95631.20
2018-12-30T03:35:42.723Z,95629.46
2018-12-30T03:40:40.203Z,95621.92
2018-12-30T03:43:11.567Z,95621.92
2018-12-30T03:45:43.026Z,95621.91
2018-12-30T03:48:14.303Z,95621.91
2018-12-30T03:50:45.507Z,95615.80
2018-12-30T03:53:16.809Z,95622.21
2018-12-30T03:55:47.935Z,95618.68
2018-12-30T03:58:19.097Z,95616.42
2018-12-30T04:00:50.290Z,95615.45
2018-12-30T04:03:21.492Z,95610.64
2018-12-30T04:05:52.786Z,95615.62
2018-12-30T04:08:23.976Z,95614.84
2018-12-30T04:10:55.223Z,95621.55
2018-12-30T04:13:26.305Z,95613.86
2018-12-30T04:15:57.457Z,95612.25
2018-12-30T04:18:28.594Z,95618.53
2018-12-30T04:20:59.788Z,95612.27
2018-12-30T04:23:31.853Z,95614.98
2018-12-30T04:26:03.221Z,95619.15
2018-12-30T04:28:34.345Z,95618.98
2018-12-30T04:31:05.792Z,95620.28
2018-12-30T04:33:36.899Z,95617.08
2018-12-30T04:36:08.254Z,95620.29
2018-12-30T04:38:39.527Z,95620.31
2018-12-30T04:41:10.691Z,95618.69
2018-12-30T04:43:41.950Z,95611.64
2018-12-30T04:46:13.198Z,95610.66
2018-12-30T04:48:44.376Z,95607.47
2018-12-30T04:51:15.566Z,95609.70
2018-12-30T04:53:46.865Z,95609.70
2018-12-30T04:56:18.222Z,95616.59
2018-12-30T04:58:49.424Z,95614.69
2018-12-30T05:01:20.818Z,95613.41
2018-12-30T05:03:53.132Z,95616.94
2018-12-30T05:06:24.537Z,95620.31
2018-12-30T05:08:55.701Z,95620.14
2018-12-30T05:11:28.871Z,95618.69
2018-12-30T05:14:00.104Z,95615.33
2018-12-30T05:16:31.672Z,95618.69
2018-12-30T05:19:02.851Z,95624.78
2018-12-30T05:21:34.063Z,95620.31
2018-12-30T05:24:05.318Z,95617.56
2018-12-30T05:26:36.588Z,95621.59
2018-12-30T05:29:07.840Z,95616.31
2018-12-30T05:31:38.939Z,95614.20
2018-12-30T05:34:10.025Z,95615.65
2018-12-30T05:36:41.219Z,95615.65
2018-12-30T05:39:12.285Z,95613.39
2018-12-30T05:41:43.559Z,95615.78
2018-12-30T05:44:14.862Z,95617.09
2018-12-30T05:46:46.046Z,95610.66
2018-12-30T05:49:17.215Z,95611.28
2018-12-30T05:51:48.405Z,95612.26
2018-12-30T05:54:19.595Z,95617.58
2018-12-30T05:56:50.908Z,95619.33
2018-12-30T05:59:21.963Z,95623.78
2018-12-30T06:01:53.337Z,95624.91
2018-12-30T06:04:24.455Z,95625.70
2018-12-30T06:06:55.645Z,95626.52
2018-12-30T06:09:26.653Z,95630.68
2018-12-30T06:11:57.969Z,95632.62
2018-12-30T06:14:29.120Z,95632.31
2018-12-30T06:17:00.319Z,95634.70
2018-12-30T06:19:31.544Z,95633.27
2018-12-30T06:22:02.709Z,95633.75
2018-12-30T06:24:33.876Z,95633.14
2018-12-30T06:27:05.160Z,95636.66
2018-12-30T06:29:36.392Z,95643.56
2018-12-30T06:32:07.606Z,95640.17
2018-12-30T06:34:38.895Z,95641.91
2018-12-30T06:37:10.091Z,95646.27
2018-12-30T06:39:41.401Z,95652.72
2018-12-30T06:42:12.744Z,95654.31
2018-12-30T06:44:44.016Z,95657.20
2018-12-30T06:47:15.421Z,95662.64
2018-12-30T06:49:46.590Z,95659.92
2018-12-30T06:52:17.762Z,95660.55
2018-12-30T06:54:48.906Z,95665.25
2018-12-30T06:57:20.107Z,95661.69
2018-12-30T06:59:51.419Z,95659.75
2018-12-30T07:02:22.625Z,95663.23
2018-12-30T07:04:54.110Z,95666.11
2018-12-30T07:07:25.442Z,95661.77
2018-12-30T07:09:56.631Z,95662.70
2018-12-30T07:12:28.020Z,95659.58
2018-12-30T07:14:59.205Z,95656.77
2018-12-30T07:17:30.511Z,95658.55
2018-12-30T07:20:01.893Z,95657.65
2018-12-30T07:22:33.314Z,95657.89
2018-12-30T07:25:06.236Z,95657.81
2018-12-30T07:27:37.484Z,95653.27
2018-12-30T07:30:08.623Z,95659.73
2018-12-30T07:32:39.852Z,95657.84
2018-12-30T07:35:11.248Z,95655.31
2018-12-30T07:37:42.525Z,95655.84
2018-12-30T07:40:13.666Z,95660.83
2018-12-30T07:42:44.874Z,95658.26
2018-12-30T07:45:16.291Z,95664.05
2018-12-30T07:47:47.531Z,95660.19
2018-12-30T07:50:18.856Z,95670.97
2018-12-30T07:52:50.021Z,95669.84
2018-12-30T07:55:21.333Z,95666.91
2018-12-30T07:57:52.567Z,95669.48
2018-12-30T08:00:24.041Z,95663.00
2018-12-30T08:02:55.251Z,95667.14
2018-12-30T08:05:26.553Z,95668.98
2018-12-30T08:07:58.084Z,95671.52
2018-12-30T08:10:29.551Z,95665.70
2018-12-30T08:13:01.974Z,95671.78
2018-12-30T08:15:33.183Z,95677.42
2018-12-30T08:18:04.653Z,95666.05
2018-12-30T08:20:36.133Z,95667.81
2018-12-30T08:23:07.317Z,95672.06
2018-12-30T08:25:38.475Z,95673.81
2018-12-30T08:28:09.718Z,95680.42
2018-12-30T08:30:41.026Z,95681.02
2018-12-30T08:33:12.434Z,95673.88
2018-12-30T08:35:45.550Z,95672.14
2018-12-30T08:38:16.736Z,95675.03
2018-12-30T08:40:48.116Z,95666.11
2018-12-30T08:43:19.464Z,95683.12
2018-12-30T08:45:50.899Z,95685.22
2018-12-30T08:48:21.988Z,95678.38
2018-12-30T08:50:53.281Z,95680.10
2018-12-30T08:53:29.353Z,95680.10
2018-12-30T08:55:57.773Z,95674.88
2018-12-30T08:58:29.077Z,95682.23
2018-12-30T09:01:00.360Z,95682.23
2018-12-30T09:03:32.632Z,95677.09
2018-12-30T09:06:04.009Z,95670.45
2018-12-30T09:08:35.306Z,95676.17
2018-12-30T09:11:06.875Z,95674.94
2018-12-30T09:13:38.057Z,95655.59
2018-12-30T09:16:09.425Z,95662.04
2018-12-30T09:18:40.769Z,95662.04
2018-12-30T09:21:11.931Z,95665.88
2018-12-30T09:23:43.200Z,95663.22
2018-12-30T09:26:14.367Z,95663.56
2018-12-30T09:28:45.556Z,95655.38
2018-12-30T09:31:16.850Z,95652.88
2018-12-30T09:33:48.083Z,95652.88
2018-12-30T09:36:19.236Z,95657.47
2018-12-30T09:38:50.685Z,95648.48
2018-12-30T09:41:21.905Z,95655.13
2018-12-30T09:43:53.199Z,95655.13
2018-12-30T09:46:24.556Z,95647.91
2018-12-30T09:48:55.767Z,95647.91
2018-12-30T09:51:27.049Z,95645.98
2018-12-30T09:53:58.244Z,95639.19
2018-12-30T09:56:29.359Z,95639.19
2018-12-30T09:59:00.593Z,95639.13
2018-12-30T10:01:31.721Z,95631.91
2018-12-30T10:04:02.897Z,95628.95
2018-12-30T10:06:34.083Z,95628.95
2018-12-30T10:09:07.853Z,95624.95
2018-12-30T10:11:39.306Z,95619.88
2018-12-30T10:14:11.409Z,95617.87
2018-12-30T10:16:42.781Z,95613.46
2018-12-30T10:19:15.137Z,95612.63
2018-12-30T10:21:46.428Z,95613.33
2018-12-30T10:24:17.682Z,95611.14
2018-12-30T10:26:48.842Z,95605.98
2018-12-30T10:29:19.906Z,95607.21
2018-12-30T10:31:51.124Z,95599.05
2018-12-30T10:34:22.458Z,95543.83
2018-12-30T10:36:53.704Z,95582.63
2018-12-30T10:39:24.942Z,95582.63
2018-12-30T10:41:57.237Z,95583.72
2018-12-30T10:44:28.620Z,95579.56
2018-12-30T10:46:59.704Z,95574.40
2018-12-30T10:49:31.022Z,95573.84
2018-12-30T10:52:02.135Z,95571.34
2018-12-30T10:54:33.354Z,95561.74
2018-12-30T10:57:04.584Z,95566.51
2018-12-30T10:59:35.856Z,95566.51
2018-12-30T11:02:07.114Z,95567.88
2018-12-30T11:04:38.182Z,95563.16
2018-12-30T11:07:10.521Z,95564.85
2018-12-30T11:09:41.828Z,95567.11
2018-12-30T11:12:13.064Z,95558.97
2018-12-30T11:14:44.294Z,95544.02
2018-12-30T11:17:15.519Z,95544.02
2018-12-30T11:19:46.714Z,95558.63
2018-12-30T11:22:18.251Z,95548.95
2018-12-30T11:24:49.347Z,95545.14
2018-12-30T11:27:20.569Z,95547.23
2018-12-30T11:29:52.044Z,95546.09
2018-12-30T11:32:23.456Z,95548.13
2018-12-30T11:34:54.691Z,95544.55
2018-12-30T11:37:25.815Z,95545.34
2018-12-30T11:39:57.300Z,95552.60
2018-12-30T11:42:28.551Z,95545.16
2018-12-30T11:44:59.847Z,95548.84
2018-12-30T11:47:31.171Z,95543.65
2018-12-30T11:50:02.352Z,95542.56
2018-12-30T11:52:33.602Z,95545.79
2018-12-30T11:55:05.026Z,95542.24
2018-12-30T11:57:36.220Z,95546.27
2018-12-30T12:00:08.648Z,95547.67
2018-12-30T12:02:39.996Z,95542.09
2018-12-30T12:05:11.281Z,95541.50
2018-12-30T12:07:42.512Z,95532.97
2018-12-30T12:10:13.774Z,95535.70
2018-12-30T12:12:48.804Z,95533.66
2018-12-30T12:15:18.072Z,95534.05
2018-12-30T12:17:49.440Z,95535.39
2018-12-30T12:20:20.690Z,95540.53
2018-12-30T12:22:51.960Z,95546.01
2018-12-30T12:25:23.105Z,95540.53
2018-12-30T12:27:54.310Z,95540.53
2018-12-30T12:30:25.609Z,95536.40
2018-12-30T12:32:56.864Z,95538.92
2018-12-30T12:35:28.266Z,95542.30
2018-12-30T12:37:59.378Z,95541.17
2018-12-30T12:40:30.562Z,95542.84
2018-12-30T12:43:02.049Z,95543.73
2018-12-30T12:45:33.210Z,95541.66
2018-12-30T12:48:04.617Z,95547.66
2018-12-30T12:50:35.735Z,95551.30
2018-12-30T12:53:06.967Z,95550.55
2018-12-30T12:55:38.207Z,95547.72
2018-12-30T12:58:09.510Z,95551.63
2018-12-30T13:00:40.595Z,95549.13
2018-12-30T13:03:11.770Z,95546.06
2018-12-30T13:05:43.074Z,95549.80
2018-12-30T13:08:14.239Z,95541.28
2018-12-30T13:10:45.311Z,95540.54
2018-12-30T13:13:16.513Z,95540.41
2018-12-30T13:15:47.912Z,95545.20
2018-12-30T13:18:19.169Z,95545.91
2018-12-30T13:20:50.443Z,95538.55
2018-12-30T13:23:21.554Z,95543.42
2018-12-30T13:25:52.830Z,95540.26
2018-12-30T13:28:24.007Z,95540.64
2018-12-30T13:30:55.380Z,95542.74
2018-12-30T13:33:26.647Z,95543.11
2018-12-30T13:35:57.823Z,95547.39
2018-12-30T13:38:28.878Z,95551.25
2018-12-30T13:41:00.106Z,95551.32
2018-12-30T13:43:32.392Z,95544.12
2018-12-30T13:46:03.599Z,95547.97
2018-12-30T13:48:34.893Z,95545.04
2018-12-30T13:51:06.050Z,95552.81
2018-12-30T13:53:37.264Z,95551.25
2018-12-30T13:56:08.606Z,95550.55
2018-12-30T13:58:39.863Z,95548.09
2018-12-30T14:01:11.166Z,95549.55
2018-12-30T14:03:44.383Z,95548.58
2018-12-30T14:06:15.723Z,95548.74
2018-12-30T14:08:46.972Z,95553.12
2018-12-30T14:11:18.367Z,95546.54
2018-12-30T14:13:49.919Z,95543.89
2018-12-30T14:16:21.512Z,95544.58
2018-12-30T14:18:52.697Z,95545.73
2018-12-30T14:21:24.323Z,95540.76
2018-12-30T14:23:55.341Z,95547.02
2018-12-30T14:26:27.643Z,95548.51
2018-12-30T14:28:58.798Z,95545.94
2018-12-30T14:31:30.000Z,95551.08
2018-12-30T14:34:01.284Z,95547.34
2018-12-30T14:36:32.493Z,95550.80
2018-12-30T14:39:04.192Z,95547.80
2018-12-30T14:41:35.249Z,95549.12
2018-12-30T14:44:06.429Z,95550.47
2018-12-30T14:46:37.646Z,95553.23
2018-12-30T14:49:08.703Z,95556.73
2018-12-30T14:51:39.954Z,95556.03
2018-12-30T14:54:20.244Z,95562.27
2018-12-30T14:56:51.508Z,95563.50
2018-12-30T14:59:22.718Z,95564.59
2018-12-30T15:01:53.895Z,95558.41
2018-12-30T15:04:25.144Z,95555.95
2018-12-30T15:06:56.533Z,95558.32
2018-12-30T15:09:35.432Z,95563.83
2018-12-30T15:12:00.605Z,95561.26
2018-12-30T15:14:31.867Z,95557.39
2018-12-30T15:17:03.155Z,95560.89
2018-12-30T15:19:34.240Z,95561.22
2018-12-30T15:22:05.586Z,95565.03
2018-12-30T15:24:36.804Z,95562.57
2018-12-30T15:27:08.287Z,95567.66
2018-12-30T15:29:39.507Z,95572.63
2018-12-30T15:32:10.829Z,95569.42
2018-12-30T15:34:42.018Z,95573.44
2018-12-30T15:37:13.357Z,95569.13
2018-12-30T15:39:44.550Z,95572.11
2018-12-30T15:42:19.028Z,95571.78
2018-12-30T15:44:48.910Z,95571.18
2018-12-30T15:47:19.936Z,95573.72
2018-12-30T15:49:51.226Z,95573.88
2018-12-30T15:52:22.519Z,95573.35
2018-12-30T15:54:54.231Z,95571.42
2018-12-30T15:57:25.406Z,95568.68
2018-12-30T15:59:56.589Z,95573.52
2018-12-30T16:02:27.892Z,95568.41
2018-12-30T16:04:59.119Z,95571.47
2018-12-30T16:07:30.442Z,95570.14
2018-12-30T16:10:01.738Z,95574.04
2018-12-30T16:12:32.976Z,95571.03
2018-12-30T16:15:04.453Z,95570.87
2018-12-30T16:17:36.783Z,95573.77
2018-12-30T16:20:09.222Z,95570.87
2018-12-30T16:22:40.364Z,95573.11
2018-12-30T16:25:11.599Z,95581.32
2018-12-30T16:27:42.979Z,95578.59
2018-12-30T16:30:14.277Z,95577.30
2018-12-30T16:32:45.511Z,95576.02
2018-12-30T16:35:16.746Z,95579.87
2018-12-30T16:37:49.408Z,95583.77
2018-12-30T16:40:20.663Z,95582.48
2018-12-30T16:42:51.894Z,95576.70
2018-12-30T16:45:23.125Z,95579.91
2018-12-30T16:47:54.284Z,95580.87
2018-12-30T16:50:25.657Z,95578.30
2018-12-30T16:52:56.950Z,95583.13
2018-12-30T16:55:34.806Z,95588.28
2018-12-30T16:58:01.323Z,95586.02
2018-12-30T17:00:32.739Z,95587.79
2018-12-30T17:03:04.111Z,95586.70
2018-12-30T17:05:35.481Z,95588.11
2018-12-30T17:08:06.527Z,95595.03
2018-12-30T17:10:37.686Z,95593.39
2018-12-30T17:13:08.969Z,95593.70
2018-12-30T17:15:40.304Z,95595.99
2018-12-30T17:18:11.720Z,95597.44
2018-12-30T17:20:42.951Z,95598.60
2018-12-30T17:23:14.204Z,95601.17
2018-12-30T17:25:45.527Z,95605.55
2018-12-30T17:28:16.868Z,95606.03
2018-12-30T17:30:48.191Z,95606.03
2018-12-30T17:33:19.710Z,95608.28
2018-12-30T17:35:50.912Z,95610.37
2018-12-30T17:38:23.605Z,95612.81
2018-12-30T17:41:01.514Z,95610.91
2018-12-30T17:43:27.798Z,95613.80
2018-12-30T17:45:59.020Z,95598.38
2018-12-30T17:48:30.409Z,95612.94
2018-12-30T17:51:01.676Z,95615.20
2018-12-30T17:53:32.937Z,95612.94
2018-12-30T17:56:04.697Z,95616.00
2018-12-30T17:58:36.035Z,95616.16
2018-12-30T18:01:07.302Z,95611.52
2018-12-30T18:03:38.592Z,95612.81
2018-12-30T18:06:10.788Z,95619.56
2018-12-30T18:08:42.153Z,95613.98
2018-12-30T18:11:15.666Z,95608.01
2018-12-30T18:13:46.850Z,95610.27
2018-12-30T18:16:18.148Z,95610.91
2018-12-30T18:18:49.428Z,95608.97
2018-12-30T18:21:20.663Z,95615.38
2018-12-30T18:23:51.908Z,95618.44
2018-12-30T18:26:23.123Z,95618.59
2018-12-30T18:28:54.385Z,95615.09
2018-12-30T18:31:25.618Z,95618.30
2018-12-30T18:33:56.658Z,95614.77
2018-12-30T18:36:27.953Z,95612.52
2018-12-30T18:38:59.368Z,95616.02
2018-12-30T18:41:30.668Z,95613.50
2018-12-30T18:44:01.985Z,95613.17
2018-12-30T18:46:33.121Z,95616.06
2018-12-30T18:49:04.592Z,95616.06
2018-12-30T18:51:35.805Z,95611.08
2018-12-30T18:54:07.154Z,95610.59
2018-12-30T18:56:38.480Z,95614.14
2018-12-30T18:59:09.680Z,95608.64
2018-12-30T19:01:40.968Z,95609.98
2018-12-30T19:04:12.419Z,95607.89
2018-12-30T19:06:46.567Z,95608.56
2018-12-30T19:09:17.760Z,95609.34
2018-12-30T19:11:48.991Z,95608.24
2018-12-30T19:14:20.527Z,95607.30
2018-12-30T19:16:51.767Z,95607.75
2018-12-30T19:19:22.937Z,95609.72
2018-12-30T19:21:54.835Z,95611.65
2018-12-30T19:24:26.238Z,95609.70
2018-12-30T19:26:57.372Z,95602.02
2018-12-30T19:29:28.712Z,95604.09
2018-12-30T19:31:59.935Z,95604.09
2018-12-30T19:34:31.331Z,95600.57
2018-12-30T19:37:02.669Z,95601.04
2018-12-30T19:39:33.982Z,95590.78
2018-12-30T19:42:06.251Z,95590.78
2018-12-30T19:44:37.510Z,95596.72
2018-12-30T19:47:08.689Z,95597.83
2018-12-30T19:49:40.093Z,95590.45
2018-12-30T19:52:11.151Z,95580.97
2018-12-30T19:54:42.644Z,95592.05
2018-12-30T19:57:13.787Z,95594.77
2018-12-30T19:59:47.227Z,95588.52
2018-12-30T20:02:18.524Z,95591.89
2018-12-30T20:04:49.938Z,95587.05
2018-12-30T20:07:21.340Z,95592.67
2018-12-30T20:09:52.682Z,95587.20
2018-12-30T20:12:24.118Z,95588.80
2018-12-30T20:14:55.288Z,95587.36
2018-12-30T20:17:26.605Z,95587.98
2018-12-30T20:19:58.022Z,95590.39
2018-12-30T20:22:29.328Z,95593.92
2018-12-30T20:25:00.664Z,95590.05
2018-12-30T20:27:31.991Z,95591.34
2018-12-30T20:30:03.257Z,95584.10
2018-12-30T20:32:34.473Z,95593.24
2018-12-30T20:35:07.775Z,95589.75
2018-12-30T20:37:39.243Z,95586.19
2018-12-30T20:40:10.695Z,95587.00
2018-12-30T20:42:41.996Z,95588.95
2018-12-30T20:45:13.540Z,95585.27
2018-12-30T20:47:44.760Z,95580.81
2018-12-30T20:50:16.073Z,95581.75
2018-12-30T20:52:47.267Z,95585.60
2018-12-30T20:55:18.549Z,95582.73
2018-12-30T20:57:49.914Z,95578.23
2018-12-30T21:00:21.272Z,95576.28
2018-12-30T21:02:52.552Z,95584.00
2018-12-30T21:05:25.856Z,95584.30
2018-12-30T21:07:56.913Z,95589.45
2018-12-30T21:10:28.206Z,95586.23
2018-12-30T21:13:00.608Z,95586.23
2018-12-30T21:15:31.850Z,95586.08
2018-12-30T21:18:03.058Z,95586.23
2018-12-30T21:20:34.604Z,95580.48
2018-12-30T21:23:06.013Z,95580.48
2018-12-30T21:25:37.370Z,95584.51
2018-12-30T21:28:08.697Z,95590.13
2018-12-30T21:30:41.183Z,95587.58
2018-12-30T21:33:12.738Z,95585.00
2018-12-30T21:35:45.426Z,95586.28
2018-12-30T21:38:16.852Z,95587.89
2018-12-30T21:40:48.014Z,95589.02
2018-12-30T21:43:19.414Z,95589.63
2018-12-30T21:45:50.710Z,95590.61
2018-12-30T21:48:21.902Z,95588.83
2018-12-30T21:50:53.000Z,95588.83
2018-12-30T21:53:24.445Z,95585.28
2018-12-30T21:55:55.682Z,95585.63
2018-12-30T21:58:26.860Z,95590.13
2018-12-30T22:00:58.155Z,95590.13
2018-12-30T22:03:29.379Z,95579.69
2018-12-30T22:06:00.669Z,95586.42
2018-12-30T22:08:31.910Z,95578.09
2018-12-30T22:11:03.067Z,95564.13
2018-12-30T22:13:34.416Z,95576.97
2018-12-30T22:16:06.912Z,95576.97
2018-12-30T22:18:37.971Z,95572.16
2018-12-30T22:21:09.316Z,95574.40
2018-12-30T22:23:40.493Z,95588.52
2018-12-30T22:26:12.042Z,95570.08
2018-12-30T22:28:43.364Z,95574.40
2018-12-30T22:31:14.648Z,95570.22
2018-12-30T22:33:45.956Z,95568.62
2018-12-30T22:36:17.064Z,95568.62
2018-12-30T22:38:52.849Z,95551.28
2018-12-30T22:41:22.499Z,95565.73
2018-12-30T22:43:53.648Z,95568.93
2018-12-30T22:46:27.136Z,95567.02
2018-12-30T22:48:58.324Z,95566.53
2018-12-30T22:51:29.603Z,95564.28
2018-12-30T22:54:02.232Z,95565.75
2018-12-30T22:56:33.586Z,95562.67
2018-12-30T22:59:05.002Z,95560.59
2018-12-30T23:01:39.755Z,95563.46
2018-12-30T23:04:10.888Z,95554.80
2018-12-30T23:06:42.280Z,95553.20
2018-12-30T23:09:13.354Z,95551.56
2018-12-30T23:11:44.683Z,95553.03
2018-12-30T23:14:15.774Z,95552.72
2018-12-30T23:16:46.929Z,95550.29
2018-12-30T23:19:18.160Z,95551.88
2018-12-30T23:21:49.338Z,95553.34
2018-12-30T23:24:20.612Z,95551.23
2018-12-30T23:26:51.962Z,95548.82
2018-12-30T23:29:23.230Z,95546.44
2018-12-30T23:31:54.384Z,95549.66
2018-12-30T23:34:25.616Z,95548.39
2018-12-30T23:36:56.844Z,95545.16
2018-12-30T23:39:28.116Z,95542.44
2018-12-30T23:41:59.432Z,95546.14
2018-12-30T23:44:30.654Z,95546.44
2018-12-30T23:47:02.043Z,95544.02
2018-12-30T23:49:33.269Z,95551.89
2018-12-30T23:52:04.601Z,95554.45
2018-12-30T23:54:35.948Z,95552.23
2018-12-30T23:57:07.148Z,95549.48
2018-12-30T23:59:38.384Z,95550.94
